Time;durP1;ratioP1;P1;durP2;ratioP2;P2;SDS_P1;SDS_P2;PMS_P1;PMS_P2;Temp;Humidity;BMP_temperature;BMP_pressure;BME280_temperature;BME280_humidity;BME280_pressure;Samples;Min_cycle;Max_cycle;Signal;HPM_P1;HPM_P2
2023/11/25 00:00:24;;;;;;;5.20;1.05;;;;;;;2.41;100.00;99584.88;5165665;28;20035;-72
2023/11/25 00:02:54;;;;;;;6.18;1.10;;;;;;;2.40;100.00;99583.19;5160024;28;20576;-71
2023/11/25 00:05:24;;;;;;;6.40;1.30;;;;;;;2.30;100.00;99599.72;5165817;28;20026;-70
2023/11/25 00:07:55;;;;;;;3.85;1.08;;;;;;;2.34;100.00;99611.66;5165635;28;20030;-71
2023/11/25 00:10:25;;;;;;;6.22;0.73;;;;;;;2.36;100.00;99622.78;5167627;28;20037;-71
2023/11/25 00:12:56;;;;;;;7.82;1.27;;;;;;;2.36;100.00;99625.38;5165361;28;20122;-71
2023/11/25 00:15:27;;;;;;;3.42;1.00;;;;;;;2.33;100.00;99635.72;5164932;28;20026;-71
2023/11/25 00:17:57;;;;;;;5.95;0.77;;;;;;;2.30;100.00;99640.94;5164598;28;20308;-70
2023/11/25 00:20:28;;;;;;;6.40;1.17;;;;;;;2.18;100.00;99649.72;5165396;28;20411;-71
2023/11/25 00:22:58;;;;;;;5.43;0.80;;;;;;;2.21;100.00;99653.97;5168430;28;20033;-71
2023/11/25 00:25:29;;;;;;;7.28;1.00;;;;;;;2.20;100.00;99655.69;5169584;28;20049;-71
2023/11/25 00:27:59;;;;;;;5.00;1.10;;;;;;;2.12;100.00;99657.56;5164631;28;20036;-70
2023/11/25 00:30:29;;;;;;;4.18;1.13;;;;;;;2.18;100.00;99664.34;5166245;28;20033;-71
2023/11/25 00:33:02;;;;;;;6.60;0.90;;;;;;;2.19;100.00;99658.31;5164015;28;20393;-71
2023/11/25 00:35:32;;;;;;;4.03;1.05;;;;;;;2.13;100.00;99668.72;5165382;28;20105;-69
2023/11/25 00:38:02;;;;;;;4.00;0.80;;;;;;;2.08;100.00;99683.38;5164608;28;20112;-71
2023/11/25 00:40:32;;;;;;;8.55;1.00;;;;;;;2.03;100.00;99685.19;5163523;28;20029;-69
2023/11/25 00:43:03;;;;;;;5.05;1.00;;;;;;;2.10;100.00;99674.78;5164481;28;20030;-71
2023/11/25 00:45:33;;;;;;;5.10;0.80;;;;;;;2.04;100.00;99674.03;5165762;28;20041;-70
2023/11/25 00:48:06;;;;;;;6.90;0.90;;;;;;;2.04;100.00;99687.75;5166104;28;20029;-71
2023/11/25 00:50:36;;;;;;;3.75;0.65;;;;;;;1.98;100.00;99687.84;5165512;28;20026;-71
2023/11/25 00:53:07;;;;;;;4.35;1.00;;;;;;;2.00;100.00;99688.66;5162782;28;20030;-71
2023/11/25 00:55:38;;;;;;;3.67;0.68;;;;;;;1.97;100.00;99691.28;5161053;28;20058;-71
2023/11/25 00:58:08;;;;;;;5.18;0.88;;;;;;;2.04;100.00;99694.63;5164799;28;20030;-71
2023/11/25 01:00:39;;;;;;;3.55;0.70;;;;;;;2.01;100.00;99695.50;5164509;28;20117;-71
2023/11/25 01:03:10;;;;;;;5.15;0.90;;;;;;;2.03;100.00;99700.66;5156735;28;20233;-70
2023/11/25 01:05:40;;;;;;;5.45;0.70;;;;;;;1.90;100.00;99697.44;5158385;28;20099;-71
2023/11/25 01:08:10;;;;;;;2.40;0.60;;;;;;;1.97;100.00;99703.34;5168059;28;20037;-71
2023/11/25 01:10:41;;;;;;;3.10;0.90;;;;;;;1.95;100.00;99694.75;5160809;28;20505;-69
2023/11/25 01:13:11;;;;;;;5.80;1.00;;;;;;;1.95;100.00;99705.06;5152602;28;20025;-71
2023/11/25 01:15:41;;;;;;;6.43;0.90;;;;;;;1.89;100.00;99705.16;5148229;28;20388;-71
2023/11/25 01:18:11;;;;;;;4.88;0.90;;;;;;;1.89;100.00;99705.16;5165238;28;20022;-70
2023/11/25 01:20:42;;;;;;;4.95;0.90;;;;;;;1.90;100.00;99706.84;5167310;28;20018;-71
2023/11/25 01:23:12;;;;;;;6.78;0.90;;;;;;;1.88;100.00;99718.91;5164037;28;20117;-71
2023/11/25 01:25:42;;;;;;;5.22;0.85;;;;;;;1.89;100.00;99715.47;5165280;28;20026;-71
2023/11/25 01:28:12;;;;;;;6.68;0.93;;;;;;;1.91;100.00;99708.56;5150810;28;20200;-71
2023/11/25 01:30:43;;;;;;;5.00;0.80;;;;;;;1.92;100.00;99708.56;5165330;28;20089;-71
2023/11/25 01:33:13;;;;;;;3.92;0.70;;;;;;;1.93;100.00;99712.81;5167943;28;20029;-71
2023/11/25 01:35:45;;;;;;;4.28;0.93;;;;;;;1.89;100.00;99718.03;5165231;28;20126;-71
2023/11/25 01:38:15;;;;;;;3.80;0.80;;;;;;;1.88;100.00;99721.50;5173027;28;20040;-71
2023/11/25 01:40:45;;;;;;;4.10;0.70;;;;;;;1.92;100.00;99724.00;5165086;28;20018;-70
2023/11/25 01:43:21;;;;;;;7.25;1.10;;;;;;;1.88;100.00;99721.50;5166709;28;20035;-71
2023/11/25 01:45:55;;;;;;;3.28;0.70;;;;;;;1.88;100.00;99722.34;5166946;28;20442;-70
2023/11/25 01:48:28;;;;;;;9.32;1.02;;;;;;;1.78;100.00;99736.22;5170626;28;20515;-70
2023/11/25 01:50:59;;;;;;;3.30;0.80;;;;;;;1.81;100.00;99732.75;5171434;28;20154;-70
2023/11/25 01:53:33;;;;;;;3.67;0.68;;;;;;;1.84;100.00;99740.44;5173680;28;20082;-70
2023/11/25 01:56:04;;;;;;;3.47;0.70;;;;;;;1.77;100.00;99741.38;5171458;28;20038;-70
2023/11/25 01:58:38;;;;;;;6.60;0.98;;;;;;;1.85;100.00;99744.72;5200183;22;20061;-71
2023/11/25 02:01:09;;;;;;;5.50;0.65;;;;;;;1.71;100.00;99726.03;5162852;28;20026;-71
2023/11/25 02:03:40;;;;;;;6.95;1.13;;;;;;;1.70;100.00;99726.03;5188703;28;20112;-72
2023/11/25 02:06:10;;;;;;;8.88;0.93;;;;;;;1.80;100.00;99725.91;5171985;28;20410;-72
2023/11/25 02:08:43;;;;;;;3.72;0.80;;;;;;;1.73;100.00;99724.28;5187913;28;20452;-68
2023/11/25 02:11:13;;;;;;;5.68;0.90;;;;;;;1.71;100.00;99731.19;5167263;28;20392;-70
2023/11/25 02:13:44;;;;;;;5.45;1.20;;;;;;;1.66;100.00;99729.53;5189028;28;20032;-71
2023/11/25 02:16:15;;;;;;;6.90;0.80;;;;;;;1.69;100.00;99725.19;5189349;28;20479;-72
2023/11/25 02:18:46;;;;;;;2.90;0.90;;;;;;;1.74;100.00;99725.97;5171890;28;20025;-69
2023/11/25 02:21:16;;;;;;;3.75;1.00;;;;;;;1.78;100.00;99733.66;5171058;28;20135;-72
2023/11/25 02:23:47;;;;;;;6.03;1.70;;;;;;;1.80;100.00;99731.06;5184988;28;20043;-71
2023/11/25 02:26:18;;;;;;;4.30;0.85;;;;;;;1.72;100.00;99729.47;5188016;28;20025;-71
2023/11/25 02:28:48;;;;;;;7.07;1.20;;;;;;;1.72;100.00;99738.03;5169745;28;20044;-72
2023/11/25 02:31:18;;;;;;;4.25;1.48;;;;;;;1.71;100.00;99740.66;5171972;28;20030;-74
2023/11/25 02:33:49;;;;;;;6.50;1.15;;;;;;;1.64;100.00;99745.03;5169474;28;20037;-74
2023/11/25 02:36:19;;;;;;;4.13;0.70;;;;;;;1.80;100.00;99741.38;5186564;28;20384;-74
2023/11/25 02:38:50;;;;;;;6.47;0.98;;;;;;;1.86;100.00;99743.84;5168963;28;20029;-74
2023/11/25 02:41:20;;;;;;;10.52;1.05;;;;;;;1.69;100.00;99743.22;5187540;28;20025;-74
2023/11/25 02:43:51;;;;;;;6.78;0.95;;;;;;;1.70;100.00;99744.94;5170630;28;20113;-74
2023/11/25 02:46:23;;;;;;;5.72;1.02;;;;;;;1.70;100.00;99747.50;5185664;28;20030;-74
2023/11/25 02:48:54;;;;;;;4.32;0.90;;;;;;;1.62;100.00;99751.91;5167808;28;20032;-74
2023/11/25 02:51:24;;;;;;;8.07;1.27;;;;;;;1.71;100.00;99749.19;5185755;28;20025;-71
2023/11/25 02:53:54;;;;;;;5.07;1.02;;;;;;;1.71;100.00;99749.19;5186037;28;20033;-72
2023/11/25 02:56:25;;;;;;;7.05;0.80;;;;;;;1.78;100.00;99755.97;5169194;28;20040;-69
2023/11/25 02:58:55;;;;;;;9.63;1.23;;;;;;;1.79;100.00;99760.25;5187503;28;20094;-73
2023/11/25 03:01:29;;;;;;;3.30;0.70;;;;;;;1.80;100.00;99769.69;5185670;28;20095;-71
2023/11/25 03:04:05;;;;;;;9.23;1.02;;;;;;;1.85;100.00;99765.31;5169068;28;20079;-72
2023/11/25 03:06:35;;;;;;;7.38;1.00;;;;;;;1.94;100.00;99760.03;5187386;28;20014;-72
2023/11/25 03:09:09;;;;;;;6.65;1.30;;;;;;;1.86;100.00;99756.72;5184415;28;20056;-71
2023/11/25 03:11:40;;;;;;;4.22;0.85;;;;;;;1.87;100.00;99758.41;5166910;28;20076;-71
2023/11/25 03:14:10;;;;;;;5.28;1.00;;;;;;;1.92;100.00;99767.78;5165928;28;20060;-70
2023/11/25 03:16:40;;;;;;;4.43;0.98;;;;;;;1.88;100.00;99762.69;5170890;28;20463;-71
2023/11/25 03:19:11;;;;;;;8.35;1.20;;;;;;;1.95;100.00;99756.56;5185274;28;20104;-71
2023/11/25 03:21:43;;;;;;;7.07;0.90;;;;;;;1.85;100.00;99760.16;5186945;28;20468;-71
2023/11/25 03:24:13;;;;;;;9.85;1.27;;;;;;;1.91;100.00;99757.50;5183904;28;20080;-72
2023/11/25 03:26:44;;;;;;;4.70;1.00;;;;;;;1.90;100.00;99753.22;5187096;28;20475;-72
2023/11/25 03:29:15;;;;;;;5.93;1.13;;;;;;;2.04;100.00;99757.31;5186226;28;20057;-72
2023/11/25 03:31:45;;;;;;;6.68;1.02;;;;;;;2.03;100.00;99765.06;5186027;28;20056;-72
2023/11/25 03:34:15;;;;;;;6.00;0.90;;;;;;;2.11;100.00;99758.06;5185066;28;20036;-72
2023/11/25 03:36:46;;;;;;;7.93;0.90;;;;;;;2.21;100.00;99759.63;5185997;28;20056;-72
2023/11/25 03:39:17;;;;;;;7.93;0.88;;;;;;;2.13;100.00;99756.34;5165116;28;20487;-72
2023/11/25 03:41:47;;;;;;;5.82;1.23;;;;;;;2.17;100.00;99763.13;5183910;28;20022;-72
2023/11/25 03:44:18;;;;;;;3.47;0.88;;;;;;;2.20;100.00;99757.94;5185203;28;20555;-73
2023/11/25 03:46:48;;;;;;;5.60;1.05;;;;;;;2.23;100.00;99755.31;5168658;28;20078;-72
2023/11/25 03:49:20;;;;;;;7.03;0.80;;;;;;;2.31;100.00;99756.06;5185588;28;20025;-72
2023/11/25 03:51:50;;;;;;;14.13;1.08;;;;;;;2.28;100.00;99751.78;5184651;28;20033;-70
2023/11/25 03:54:21;;;;;;;3.45;0.90;;;;;;;2.37;100.00;99751.63;5185740;28;20439;-69
2023/11/25 03:56:51;;;;;;;8.35;1.15;;;;;;;2.34;100.00;99753.41;5167822;28;20314;-70
2023/11/25 03:59:22;;;;;;;6.03;1.08;;;;;;;2.32;100.00;99744.88;5186042;28;20084;-73
2023/11/25 04:01:52;;;;;;;10.10;0.98;;;;;;;2.35;100.00;99752.53;5184568;28;20036;-72
2023/11/25 04:04:23;;;;;;;6.03;0.80;;;;;;;2.34;100.00;99746.53;5185965;28;20022;-72
2023/11/25 04:06:53;;;;;;;8.27;1.20;;;;;;;2.35;100.00;99739.66;5167714;28;20026;-71
2023/11/25 04:09:24;;;;;;;6.13;0.80;;;;;;;2.34;100.00;99738.78;5186088;28;20030;-70
2023/11/25 04:11:54;;;;;;;3.30;0.80;;;;;;;2.43;100.00;99745.53;5182473;28;20025;-71
2023/11/25 04:14:25;;;;;;;6.95;0.82;;;;;;;2.41;100.00;99744.69;5184828;28;20029;-70
2023/11/25 04:16:56;;;;;;;6.28;0.80;;;;;;;2.45;100.00;99743.75;5187000;28;20388;-72
2023/11/25 04:19:26;;;;;;;5.78;0.73;;;;;;;2.55;100.00;99729.84;5185219;28;20029;-72
2023/11/25 04:21:58;;;;;;;7.20;1.58;;;;;;;2.57;100.00;99726.38;5184585;28;20030;-72
2023/11/25 04:24:29;;;;;;;6.25;1.10;;;;;;;2.57;100.00;99722.94;5185117;28;20021;-72
2023/11/25 04:26:59;;;;;;;2.95;0.85;;;;;;;2.58;100.00;99733.25;5184246;28;20029;-72
2023/11/25 04:29:29;;;;;;;6.85;1.08;;;;;;;2.55;100.00;99725.56;5185692;28;20118;-72
2023/11/25 04:32:00;;;;;;;11.45;1.42;;;;;;;2.43;100.00;99732.63;5184293;28;20395;-73
2023/11/25 04:34:30;;;;;;;8.25;1.17;;;;;;;2.46;100.00;99728.28;5183513;28;20056;-73
2023/11/25 04:37:00;;;;;;;8.82;1.15;;;;;;;2.57;100.00;99728.09;5183448;28;20483;-72
2023/11/25 04:39:31;;;;;;;3.70;0.82;;;;;;;2.64;100.00;99735.69;5185054;28;20029;-72
2023/11/25 04:42:01;;;;;;;6.53;1.00;;;;;;;2.66;100.00;99736.53;5184104;28;20484;-72
2023/11/25 04:44:32;;;;;;;9.27;1.27;;;;;;;2.70;99.98;99730.44;5168008;28;20029;-72
2023/11/25 04:47:02;;;;;;;6.90;0.95;;;;;;;2.80;100.00;99725.94;5183942;28;20036;-73
2023/11/25 04:49:33;;;;;;;8.18;0.70;;;;;;;2.71;99.80;99726.13;5185410;28;20025;-73
2023/11/25 04:52:04;;;;;;;5.32;0.88;;;;;;;2.70;100.00;99714.13;5183832;28;20030;-73
2023/11/25 04:54:35;;;;;;;7.72;0.75;;;;;;;2.73;100.00;99719.22;5181336;28;20338;-72
2023/11/25 04:57:06;;;;;;;7.55;1.08;;;;;;;2.77;100.00;99713.13;5183785;28;20030;-73
2023/11/25 04:59:36;;;;;;;6.38;0.90;;;;;;;2.78;100.00;99714.81;5168298;28;20025;-72
2023/11/25 05:02:07;;;;;;;4.93;1.05;;;;;;;2.90;99.88;99712.88;5183191;28;20022;-72
2023/11/25 05:04:38;;;;;;;7.90;0.88;;;;;;;2.87;99.67;99712.91;5180532;28;20055;-73
2023/11/25 05:07:09;;;;;;;4.57;0.98;;;;;;;2.85;99.73;99703.53;5167517;28;20026;-72
2023/11/25 05:09:41;;;;;;;8.50;0.95;;;;;;;2.92;100.00;99700.81;5183297;28;20017;-72
2023/11/25 05:12:11;;;;;;;4.93;0.95;;;;;;;2.93;100.00;99699.91;5183666;28;20017;-72
2023/11/25 05:14:42;;;;;;;4.20;0.90;;;;;;;3.00;100.00;99698.06;5166781;28;20028;-72
2023/11/25 05:17:13;;;;;;;5.88;0.68;;;;;;;2.92;100.00;99689.63;5166599;28;20464;-73
2023/11/25 05:19:43;;;;;;;9.60;1.30;;;;;;;2.86;100.00;99684.59;5184477;28;20364;-73
2023/11/25 05:22:14;;;;;;;6.03;0.73;;;;;;;2.90;100.00;99683.63;5183577;28;20022;-73
2023/11/25 05:24:44;;;;;;;6.95;1.33;;;;;;;2.95;100.00;99685.25;5168526;28;20029;-73
2023/11/25 05:27:14;;;;;;;7.05;0.90;;;;;;;2.82;100.00;99673.47;5184796;28;20018;-73
2023/11/25 05:29:44;;;;;;;6.63;1.23;;;;;;;2.90;100.00;99681.06;5187698;28;20025;-72
2023/11/25 05:32:15;;;;;;;6.63;1.10;;;;;;;2.92;100.00;99681.88;5186261;28;20390;-73
2023/11/25 05:34:45;;;;;;;8.85;0.90;;;;;;;2.90;100.00;99681.06;5187912;28;20032;-72
2023/11/25 05:37:19;;;;;;;6.65;1.10;;;;;;;2.82;100.00;99678.63;5186396;28;20109;-72
2023/11/25 05:39:54;;;;;;;4.68;0.90;;;;;;;2.84;100.00;99678.59;5187521;28;20025;-73
2023/11/25 05:42:27;;;;;;;13.38;1.25;;;;;;;2.78;100.00;99668.38;5184616;28;20037;-72
2023/11/25 05:44:57;;;;;;;7.70;1.38;;;;;;;2.72;100.00;99665.94;5186428;28;20034;-73
2023/11/25 05:47:28;;;;;;;5.28;1.00;;;;;;;2.77;100.00;99664.97;5187024;28;20037;-72
2023/11/25 05:49:58;;;;;;;10.00;1.20;;;;;;;2.76;100.00;99658.13;5171554;28;20423;-72
2023/11/25 05:52:29;;;;;;;7.13;0.93;;;;;;;2.81;100.00;99660.59;5168810;28;20029;-72
2023/11/25 05:54:59;;;;;;;6.53;1.00;;;;;;;2.76;100.00;99659.84;5186597;28;20243;-73
2023/11/25 05:57:30;;;;;;;4.30;0.85;;;;;;;2.80;100.00;99667.50;5186943;28;20025;-72
2023/11/25 06:00:00;;;;;;;10.25;1.02;;;;;;;2.72;100.00;99665.94;5185962;28;20033;-73
2023/11/25 06:02:30;;;;;;;10.45;1.33;;;;;;;2.80;100.00;99671.78;5186338;28;20036;-73
2023/11/25 06:05:01;;;;;;;4.82;0.93;;;;;;;2.74;100.00;99665.03;5166363;28;20161;-73
2023/11/25 06:07:31;;;;;;;9.60;1.20;;;;;;;2.79;100.00;99668.38;5185755;28;20600;-73
2023/11/25 06:10:03;;;;;;;7.70;1.00;;;;;;;2.78;100.00;99665.81;5166742;28;20076;-73
2023/11/25 06:12:33;;;;;;;5.32;1.05;;;;;;;2.93;100.00;99674.13;5187741;28;20032;-72
2023/11/25 06:15:05;;;;;;;11.30;1.40;;;;;;;2.92;100.00;99666.41;5167411;28;20487;-73
2023/11/25 06:17:36;;;;;;;8.75;1.55;;;;;;;2.98;100.00;99668.84;5189659;28;20518;-73
2023/11/25 06:20:07;;;;;;;7.25;1.40;;;;;;;3.06;100.00;99665.22;5183227;28;20026;-73
2023/11/25 06:22:40;;;;;;;10.60;1.50;;;;;;;2.98;100.00;99669.72;5186563;28;20021;-73
2023/11/25 06:25:10;;;;;;;6.80;1.30;;;;;;;3.04;100.00;99659.25;5185970;28;20022;-72
2023/11/25 06:27:41;;;;;;;12.27;2.00;;;;;;;3.11;100.00;99654.81;5185782;28;20036;-73
2023/11/25 06:30:12;;;;;;;8.23;1.60;;;;;;;3.11;100.00;99666.00;5168149;28;20048;-72
2023/11/25 06:32:42;;;;;;;14.45;1.63;;;;;;;3.14;100.00;99663.38;5185430;28;20060;-72
2023/11/25 06:35:12;;;;;;;7.82;1.40;;;;;;;3.19;100.00;99664.09;5182792;28;20022;-73
2023/11/25 06:37:42;;;;;;;6.40;1.35;;;;;;;3.16;100.00;99661.59;5184631;28;20022;-72
2023/11/25 06:40:13;;;;;;;12.13;1.70;;;;;;;3.19;100.00;99658.94;5181061;28;20018;-73
2023/11/25 06:42:44;;;;;;;7.63;1.90;;;;;;;3.18;100.00;99651.25;5184819;28;20506;-73
2023/11/25 06:45:14;;;;;;;11.60;1.65;;;;;;;3.25;100.00;99642.47;5183579;28;20026;-73
2023/11/25 06:47:45;;;;;;;12.25;2.05;;;;;;;3.35;100.00;99647.41;5186414;28;20025;-73
2023/11/25 06:50:15;;;;;;;12.52;2.63;;;;;;;3.38;100.00;99649.09;5183664;28;20022;-73
2023/11/25 06:52:45;;;;;;;8.07;1.83;;;;;;;3.45;100.00;99646.34;5168227;28;20034;-73
2023/11/25 06:55:18;;;;;;;13.65;1.85;;;;;;;3.54;100.00;99653.03;5185025;28;20203;-72
2023/11/25 06:57:49;;;;;;;9.57;2.05;;;;;;;3.44;100.00;99644.66;5166915;28;20035;-72
2023/11/25 07:00:19;;;;;;;9.43;1.88;;;;;;;3.46;100.00;99637.72;5186586;28;20018;-73
2023/11/25 07:02:50;;;;;;;11.90;1.95;;;;;;;3.53;100.00;99643.59;5185721;28;20683;-72
2023/11/25 07:05:20;;;;;;;7.18;1.85;;;;;;;3.50;100.00;99648.84;5184294;28;20388;-72
2023/11/25 07:07:52;;;;;;;8.27;1.67;;;;;;;3.49;100.00;99647.09;5184179;28;20029;-73
2023/11/25 07:10:23;;;;;;;15.38;2.17;;;;;;;3.61;100.00;99645.13;5181855;28;20407;-73
2023/11/25 07:12:53;;;;;;;8.07;2.00;;;;;;;3.58;100.00;99643.44;5182016;28;20028;-72
2023/11/25 07:15:23;;;;;;;13.48;2.40;;;;;;;3.64;100.00;99648.47;5183271;28;20087;-72
2023/11/25 07:17:54;;;;;;;9.63;1.98;;;;;;;3.68;100.00;99647.53;5167046;28;20079;-72
2023/11/25 07:20:25;;;;;;;10.63;2.38;;;;;;;3.65;100.00;99642.41;5165773;28;20139;-68
2023/11/25 07:22:55;;;;;;;9.57;1.92;;;;;;;3.65;100.00;99645.00;5184640;28;20029;-70
2023/11/25 07:25:28;;;;;;;11.35;1.92;;;;;;;3.56;100.00;99638.34;5183426;28;20033;-72
2023/11/25 07:27:58;;;;;;;8.45;1.90;;;;;;;3.55;100.00;99636.66;5182646;28;20038;-73
2023/11/25 07:30:28;;;;;;;9.75;2.22;;;;;;;3.59;100.00;99634.81;5182586;28;20403;-73
2023/11/25 07:32:58;;;;;;;10.13;2.22;;;;;;;3.59;100.00;99639.97;5167967;28;20037;-73
2023/11/25 07:35:29;;;;;;;12.00;2.63;;;;;;;3.59;100.00;99634.81;5183158;28;20029;-73
2023/11/25 07:38:01;;;;;;;13.50;3.30;;;;;;;3.73;100.00;99639.66;5185888;28;20029;-69
2023/11/25 07:40:32;;;;;;;9.07;2.20;;;;;;;3.73;100.00;99635.34;5185208;28;20222;-73
2023/11/25 07:43:03;;;;;;;13.93;2.40;;;;;;;3.61;100.00;99633.03;5167736;28;20029;-73
2023/11/25 07:45:33;;;;;;;6.57;1.80;;;;;;;3.54;100.00;99637.53;5184049;28;20025;-72
2023/11/25 07:48:04;;;;;;;7.45;2.42;;;;;;;3.49;100.00;99629.03;5185120;28;20037;-72
2023/11/25 07:50:35;;;;;;;15.82;3.05;;;;;;;3.52;100.00;99634.16;5185393;28;20103;-73
2023/11/25 07:53:05;;;;;;;12.77;3.05;;;;;;;3.51;100.00;99630.69;5186521;28;20033;-73
2023/11/25 07:55:37;;;;;;;12.48;2.83;;;;;;;3.41;100.00;99633.53;5183891;28;20033;-73
2023/11/25 07:58:07;;;;;;;14.10;2.65;;;;;;;3.18;100.00;99622.88;5196675;23;20048;-73
2023/11/25 08:00:38;;;;;;;9.07;2.58;;;;;;;3.23;100.00;99619.28;5202999;28;20032;-72
2023/11/25 08:03:09;;;;;;;16.48;3.88;;;;;;;3.22;100.00;99614.16;5203606;28;20209;-73
2023/11/25 08:05:39;;;;;;;16.42;3.60;;;;;;;3.13;100.00;99611.75;5204446;28;20487;-73
2023/11/25 08:08:11;;;;;;;14.98;3.42;;;;;;;3.20;100.00;99597.88;5206120;28;20033;-73
2023/11/25 08:10:41;;;;;;;14.43;3.25;;;;;;;3.21;100.00;99602.13;5204268;28;20048;-72
2023/11/25 08:13:14;;;;;;;12.70;3.03;;;;;;;3.22;100.00;99598.69;5190358;28;20021;-72
2023/11/25 08:15:45;;;;;;;10.95;2.15;;;;;;;3.19;100.00;99597.00;5203834;28;20068;-73
2023/11/25 08:18:16;;;;;;;10.23;2.30;;;;;;;3.30;100.00;99589.00;5207151;28;20201;-70
2023/11/25 08:20:47;;;;;;;13.52;2.38;;;;;;;3.27;100.00;99584.78;5203988;28;20021;-71
2023/11/25 08:23:17;;;;;;;7.13;2.15;;;;;;;3.19;100.00;99588.44;5188222;28;20512;-72
2023/11/25 08:25:47;;;;;;;8.38;2.60;;;;;;;3.07;100.00;99581.81;5203920;28;20029;-73
2023/11/25 08:28:18;;;;;;;11.35;2.40;;;;;;;3.22;100.00;99575.44;5204354;28;20662;-72
2023/11/25 08:30:48;;;;;;;11.77;2.38;;;;;;;3.17;100.00;99577.28;5204967;28;20091;-71
2023/11/25 08:33:18;;;;;;;10.13;2.42;;;;;;;3.14;100.00;99577.31;5186551;28;20033;-72
2023/11/25 08:35:49;;;;;;;8.15;2.17;;;;;;;3.14;100.00;99583.34;5205004;28;20029;-72
2023/11/25 08:38:19;;;;;;;13.27;2.05;;;;;;;3.11;100.00;99582.56;5204390;28;20048;-72
2023/11/25 08:40:49;;;;;;;8.95;2.45;;;;;;;3.21;100.00;99584.06;5202105;28;20048;-72
2023/11/25 08:43:20;;;;;;;11.70;2.50;;;;;;;3.12;100.00;99579.97;5204827;28;20516;-72
2023/11/25 08:45:53;;;;;;;6.15;2.17;;;;;;;3.24;100.00;99584.00;5206705;28;20044;-73
2023/11/25 08:48:23;;;;;;;12.35;2.53;;;;;;;3.19;100.00;99578.94;5188904;28;20025;-72
2023/11/25 08:50:54;;;;;;;11.13;2.90;;;;;;;3.14;100.00;99573.03;5205527;28;20040;-72
2023/11/25 08:53:25;;;;;;;9.57;2.83;;;;;;;3.22;100.00;99572.88;5202649;28;20387;-70
2023/11/25 08:55:55;;;;;;;9.35;2.22;;;;;;;3.29;100.00;99582.16;5204971;28;20036;-72
2023/11/25 08:58:26;;;;;;;7.45;2.30;;;;;;;3.31;100.00;99576.09;5190487;28;20517;-71
2023/11/25 09:00:56;;;;;;;8.73;2.80;;;;;;;3.37;100.00;99578.50;5212375;28;20398;-72
2023/11/25 09:03:27;;;;;;;12.40;2.78;;;;;;;3.27;100.00;99578.75;5212000;28;20033;-72
2023/11/25 09:05:58;;;;;;;10.77;3.10;;;;;;;3.30;100.00;99583.84;5211836;28;20041;-70
2023/11/25 09:08:28;;;;;;;11.55;2.40;;;;;;;3.42;100.00;99581.88;5211880;28;20044;-72
2023/11/25 09:11:00;;;;;;;15.13;3.05;;;;;;;3.49;100.00;99574.81;5211157;28;20036;-71
2023/11/25 09:13:32;;;;;;;24.17;6.18;;;;;;;3.53;100.00;99576.44;5192642;28;20126;-72
2023/11/25 09:16:03;;;;;;;12.05;2.45;;;;;;;3.60;100.00;99569.34;5207553;28;20387;-71
2023/11/25 09:18:34;;;;;;;8.05;2.08;;;;;;;3.57;100.00;99581.47;5212078;28;20064;-72
2023/11/25 09:21:04;;;;;;;7.60;2.00;;;;;;;3.68;100.00;99588.13;5208603;28;20057;-72
2023/11/25 09:23:35;;;;;;;11.15;2.28;;;;;;;3.72;100.00;99594.03;5208615;28;20037;-72
2023/11/25 09:26:05;;;;;;;13.07;1.92;;;;;;;3.62;100.00;99596.00;5211868;28;20196;-72
2023/11/25 09:28:35;;;;;;;9.57;3.28;;;;;;;3.77;100.00;99592.22;5209957;28;20087;-72
2023/11/25 09:31:06;;;;;;;8.95;2.00;;;;;;;3.80;100.00;99607.63;5201221;28;20044;-71
2023/11/25 09:33:36;;;;;;;9.57;2.72;;;;;;;3.81;100.00;99599.84;5210089;28;20028;-72
2023/11/25 09:36:07;;;;;;;7.00;1.60;;;;;;;3.83;100.00;99599.81;5207424;28;20056;-72
2023/11/25 09:38:37;;;;;;;5.78;1.80;;;;;;;3.91;100.00;99593.56;5204738;28;20020;-72
2023/11/25 09:41:08;;;;;;;4.50;1.30;;;;;;;3.96;100.00;99594.28;5210311;28;20055;-72
2023/11/25 09:43:38;;;;;;;8.45;1.80;;;;;;;4.02;100.00;99594.16;5208937;28;20423;-72
2023/11/25 09:46:11;;;;;;;13.20;1.75;;;;;;;4.11;100.00;99588.75;5190964;28;20033;-72
2023/11/25 09:48:42;;;;;;;5.80;1.38;;;;;;;4.02;100.00;99583.81;5210725;28;20642;-73
2023/11/25 09:51:13;;;;;;;7.40;1.30;;;;;;;4.13;100.00;99586.97;5209113;28;20033;-72
2023/11/25 09:53:44;;;;;;;6.05;1.40;;;;;;;4.12;100.00;99580.09;5207873;28;20824;-70
2023/11/25 09:56:16;;;;;;;5.95;1.77;;;;;;;4.11;100.00;99577.56;5208326;28;20570;-72
2023/11/25 09:58:48;;;;;;;7.10;1.50;;;;;;;4.21;100.00;99582.47;5209423;28;20387;-71
2023/11/25 10:01:18;;;;;;;6.70;1.40;;;;;;;4.18;100.00;99585.13;5208882;28;20118;-72
2023/11/25 10:03:50;;;;;;;13.93;1.73;;;;;;;4.18;100.00;99584.25;5210140;28;20033;-72
2023/11/25 10:06:20;;;;;;;6.18;1.80;;;;;;;4.30;100.00;99579.63;5205551;28;20033;-72
2023/11/25 10:08:51;;;;;;;7.57;1.60;;;;;;;4.43;100.00;99583.59;5202513;28;20461;-71
2023/11/25 10:11:23;;;;;;;8.60;1.63;;;;;;;4.48;100.00;99579.13;5202476;28;20053;-72
2023/11/25 10:13:53;;;;;;;11.73;2.28;;;;;;;4.48;100.00;99576.53;5204968;28;20445;-72
2023/11/25 10:16:28;;;;;;;12.52;2.60;;;;;;;4.47;100.00;99577.44;5210325;28;20038;-71
2023/11/25 10:18:58;;;;;;;10.23;2.70;;;;;;;4.66;100.00;99576.03;5191007;28;20346;-70
2023/11/25 10:21:28;;;;;;;7.20;2.95;;;;;;;4.72;100.00;99578.47;5205659;28;20426;-72
2023/11/25 10:24:06;;;;;;;7.38;2.08;;;;;;;4.59;100.00;99571.94;5209896;28;20029;-71
2023/11/25 10:26:37;;;;;;;7.88;2.45;;;;;;;4.61;100.00;99575.31;5205853;28;20501;-72
2023/11/25 10:29:09;;;;;;;11.95;2.80;;;;;;;4.67;100.00;99576.88;5202900;28;20056;-71
2023/11/25 10:31:41;;;;;;;8.98;3.30;;;;;;;4.65;100.00;99576.09;5203597;28;20035;-72
2023/11/25 10:34:13;;;;;;;6.20;2.97;;;;;;;4.73;100.00;99580.16;5204835;28;20029;-71
2023/11/25 10:36:45;;;;;;;7.72;3.30;;;;;;;4.76;100.00;99574.03;5203672;28;20029;-71
2023/11/25 10:39:17;;;;;;;8.73;3.28;;;;;;;4.80;100.00;99571.31;5207024;28;20109;-72
2023/11/25 10:41:51;;;;;;;6.00;3.35;;;;;;;4.81;100.00;99572.19;5206505;28;20534;-71
2023/11/25 10:44:21;;;;;;;8.23;2.97;;;;;;;4.79;100.00;99574.81;5208560;28;20047;-72
2023/11/25 10:46:55;;;;;;;12.10;3.42;;;;;;;4.79;100.00;99569.63;5209235;28;20403;-72
2023/11/25 10:49:31;;;;;;;9.38;4.35;;;;;;;4.85;100.00;99560.84;5205367;28;20038;-71
2023/11/25 10:52:04;;;;;;;9.13;3.15;;;;;;;4.78;100.00;99567.94;5204446;28;20136;-71
2023/11/25 10:54:35;;;;;;;11.05;3.33;;;;;;;4.88;100.00;99573.69;5194313;28;20237;-72
2023/11/25 10:57:08;;;;;;;6.65;3.22;;;;;;;4.90;100.00;99565.00;5210649;28;20028;-72
2023/11/25 10:59:40;;;;;;;7.47;2.95;;;;;;;4.98;100.00;99560.44;5199771;28;20518;-71
2023/11/25 11:02:23;;;;;;;10.95;2.72;;;;;;;5.09;100.00;99573.06;5204782;28;20021;-72
2023/11/25 11:04:58;;;;;;;9.15;2.92;;;;;;;5.06;100.00;99567.97;5203963;28;20048;-71
2023/11/25 11:07:30;;;;;;;6.80;2.55;;;;;;;5.06;100.00;99561.06;5207230;28;20417;-71
2023/11/25 11:10:05;;;;;;;5.28;2.65;;;;;;;4.99;100.00;99556.94;5200030;28;20614;-71
2023/11/25 11:12:43;;;;;;;5.22;2.10;;;;;;;4.91;100.00;99558.06;5206180;28;20055;-72
2023/11/25 11:15:18;;;;;;;3.42;1.50;;;;;;;4.87;100.00;99554.75;5203581;28;20037;-72
2023/11/25 11:18:06;;;;;;;4.10;1.48;;;;;;;4.87;100.00;99559.06;5206231;28;20490;-71
2023/11/25 11:20:43;;;;;;;4.15;1.58;;;;;;;4.99;100.00;99564.72;5209700;28;20032;-71
2023/11/25 11:23:19;;;;;;;3.95;1.38;;;;;;;4.78;100.00;99567.94;5186775;28;20304;-71
2023/11/25 11:26:27;;;;;;;4.72;1.85;;;;;;;4.81;100.00;99567.84;5205959;28;20048;-72
2023/11/25 11:29:20;;;;;;;3.97;2.00;;;;;;;4.94;100.00;99555.41;5171159;28;20049;-72
2023/11/25 11:32:04;;;;;;;4.25;2.03;;;;;;;4.92;100.00;99559.75;5202741;28;20025;-70
2023/11/25 11:34:39;;;;;;;5.65;1.88;;;;;;;4.89;100.00;99559.84;5203620;28;20507;-71
2023/11/25 11:37:10;;;;;;;4.43;2.22;;;;;;;4.97;100.00;99566.50;5197927;28;20052;-71
2023/11/25 11:40:00;;;;;;;4.53;2.30;;;;;;;4.85;100.00;99564.28;5203908;28;20390;-71
2023/11/25 11:42:34;;;;;;;4.35;2.28;;;;;;;4.88;100.00;99563.34;5203745;28;20032;-72
2023/11/25 11:45:20;;;;;;;7.10;2.50;;;;;;;4.90;100.00;99567.59;5206679;28;20086;-72
2023/11/25 11:47:58;;;;;;;6.55;2.85;;;;;;;4.87;100.00;99575.44;5207927;28;20029;-71
2023/11/25 11:50:33;;;;;;;6.95;3.17;;;;;;;4.87;100.00;99578.03;5206075;28;20065;-72